createdAt,value
2022-08-23T00:01:40.240Z,97872.59
2022-08-23T00:05:42.278Z,97880.31
2022-08-23T00:09:44.476Z,97878.16
2022-08-23T00:13:47.772Z,97866.06
2022-08-23T00:17:50.627Z,97865.78
2022-08-23T00:21:54.758Z,97874.97
2022-08-23T00:25:56.792Z,97870.41
2022-08-23T00:29:59.332Z,97879.66
2022-08-23T00:34:01.372Z,97874.94
2022-08-23T00:38:31.626Z,97864.97
2022-08-23T00:43:08.758Z,97872.03
2022-08-23T00:47:33.101Z,97870.00
2022-08-23T00:52:02.298Z,97864.59
2022-08-23T00:56:08.960Z,97874.19
2022-08-23T01:00:12.107Z,97873.53
2022-08-23T01:04:14.773Z,97877.03
2022-08-23T01:08:16.874Z,97880.19
2022-08-23T01:12:32.340Z,97875.38
2022-08-23T01:16:45.531Z,97872.97
2022-08-23T01:21:05.249Z,97875.41
2022-08-23T01:25:16.854Z,97875.75
2022-08-23T01:29:19.606Z,97875.03
2022-08-23T01:33:21.871Z,97873.09
2022-08-23T01:37:24.210Z,97872.50
2022-08-23T01:41:26.468Z,97869.00
2022-08-23T01:45:30.233Z,97860.19
2022-08-23T01:49:34.538Z,97865.50
2022-08-23T01:53:37.081Z,97876.38
2022-08-23T01:57:42.809Z,97870.44
2022-08-23T02:01:48.848Z,97866.34
2022-08-23T02:09:59.126Z,97869.50
2022-08-23T02:14:04.242Z,97861.53
2022-08-23T02:18:14.188Z,97874.19
2022-08-23T02:22:18.768Z,97871.03
2022-08-23T02:26:20.990Z,97873.69
2022-08-23T02:30:33.920Z,97877.81
2022-08-23T02:34:37.261Z,97882.38
2022-08-23T02:38:40.525Z,97886.25
2022-08-23T02:42:43.118Z,97888.19
2022-08-23T02:46:46.990Z,97886.50
2022-08-23T02:50:50.480Z,97885.97
2022-08-23T02:54:53.864Z,97896.94
2022-08-23T02:59:00.574Z,97897.66
2022-08-23T03:03:03.239Z,97900.16
2022-08-23T03:07:05.577Z,97888.47
2022-08-23T03:11:26.582Z,97891.81
2022-08-23T03:15:30.074Z,97887.56
2022-08-23T03:19:32.324Z,97892.41
2022-08-23T03:23:35.029Z,97886.69
2022-08-23T03:27:38.365Z,97891.38
2022-08-23T03:31:46.860Z,97892.31
2022-08-23T03:35:49.845Z,97895.75
2022-08-23T03:39:52.858Z,97893.53
2022-08-23T03:43:55.254Z,97892.06
2022-08-23T03:47:58.053Z,97899.31
2022-08-23T03:52:01.348Z,97903.03
2022-08-23T03:56:06.640Z,97912.56
2022-08-23T04:00:11.990Z,97913.75
2022-08-23T04:04:19.560Z,97915.13
2022-08-23T04:08:42.968Z,97916.28
2022-08-23T04:12:46.005Z,97917.66
2022-08-23T04:16:51.039Z,97924.44
2022-08-23T04:20:55.870Z,97923.38
2022-08-23T04:24:58.137Z,97918.72
2022-08-23T04:29:00.853Z,97928.25
2022-08-23T04:33:03.712Z,97921.16
2022-08-23T04:37:13.679Z,97929.84
2022-08-23T04:41:34.902Z,97927.94
2022-08-23T04:45:41.086Z,97936.50
2022-08-23T04:49:49.576Z,97947.53
2022-08-23T04:53:51.675Z,97945.19
2022-08-23T04:58:14.338Z,97948.69
2022-08-23T05:02:20.648Z,97948.28
2022-08-23T05:06:24.356Z,97947.22
2022-08-23T05:10:26.752Z,97948.47
2022-08-23T05:14:29.458Z,97953.13
2022-08-23T05:18:31.886Z,97964.16
2022-08-23T05:22:35.933Z,97960.31
2022-08-23T05:26:58.837Z,97957.94
2022-08-23T05:31:11.767Z,97970.50
2022-08-23T05:35:21.556Z,97966.69
2022-08-23T05:39:25.754Z,97969.41
2022-08-23T05:43:36.017Z,97978.25
2022-08-23T05:47:38.152Z,97976.31
2022-08-23T05:51:54.120Z,97980.81
2022-08-23T05:56:09.614Z,97973.47
2022-08-23T06:00:14.695Z,97981.72
2022-08-23T06:04:25.870Z,97989.81
2022-08-23T06:08:28.614Z,97991.47
2022-08-23T06:12:32.160Z,97994.63
2022-08-23T06:16:40.723Z,97995.34
2022-08-23T06:20:43.551Z,97992.50
2022-08-23T06:24:50.759Z,97999.88
2022-08-23T06:28:56.270Z,97991.25
2022-08-23T06:32:59.212Z,98004.13
2022-08-23T06:37:10.190Z,98000.84
2022-08-23T06:41:30.890Z,98003.59
2022-08-23T06:46:05.495Z,98003.69
2022-08-23T06:50:09.367Z,98001.53
2022-08-23T06:54:32.402Z,97997.19
2022-08-23T06:59:07.983Z,98003.13
2022-08-23T07:03:28.676Z,97990.13
2022-08-23T07:07:50.950Z,97992.81
2022-08-23T07:11:54.175Z,98011.78
2022-08-23T07:16:00.423Z,98010.69
2022-08-23T07:20:03.632Z,98014.41
2022-08-23T07:24:08.533Z,98008.00
2022-08-23T07:28:12.278Z,98010.72
2022-08-23T07:32:18.723Z,98010.53
2022-08-23T07:36:23.100Z,98013.00
2022-08-23T07:40:27.640Z,98013.28
2022-08-23T07:44:34.279Z,98011.69
2022-08-23T07:48:53.467Z,98018.19
2022-08-23T07:53:03.069Z,98019.03
2022-08-23T07:57:05.699Z,98027.78
2022-08-23T08:01:37.568Z,98029.22
2022-08-23T08:05:40.891Z,98024.25
2022-08-23T08:09:43.262Z,98026.09
2022-08-23T08:13:47.271Z,98025.25
2022-08-23T08:17:50.806Z,98030.16
2022-08-23T08:21:53.177Z,98034.00
2022-08-23T08:26:13.708Z,98031.06
2022-08-23T08:30:26.687Z,98034.88
2022-08-23T08:34:28.957Z,98037.31
2022-08-23T08:38:31.672Z,98043.75
2022-08-23T08:43:06.391Z,98046.16
2022-08-23T08:47:16.012Z,98041.56
2022-08-23T08:51:42.993Z,98046.31
2022-08-23T08:55:49.296Z,98042.84
2022-08-23T08:59:58.582Z,98048.09
2022-08-23T09:04:02.833Z,98054.25
2022-08-23T09:08:43.481Z,98057.97
2022-08-23T09:13:00.982Z,98049.13
2022-08-23T09:17:18.358Z,98044.81
2022-08-23T09:21:21.690Z,98053.91
2022-08-23T09:25:24.760Z,98049.75
2022-08-23T09:29:37.064Z,98061.56
2022-08-23T09:33:43.261Z,98047.16
2022-08-23T09:38:20.377Z,98049.56
2022-08-23T09:42:33.613Z,98050.91
2022-08-23T09:46:41.755Z,98042.38
2022-08-23T09:50:54.679Z,98042.94
2022-08-23T09:55:02.874Z,98036.91
2022-08-23T09:59:39.256Z,98036.94
2022-08-23T10:04:05.703Z,98028.84
2022-08-23T10:08:10.636Z,98026.88
2022-08-23T10:12:16.346Z,98028.59
2022-08-23T10:17:01.581Z,98025.22
2022-08-23T10:21:16.497Z,98033.28
2022-08-23T10:25:36.579Z,98029.91
2022-08-23T10:29:48.545Z,98025.88
2022-08-23T10:34:15.740Z,98028.56
2022-08-23T10:38:47.096Z,98030.59
2022-08-23T10:43:08.976Z,98023.34
2022-08-23T10:47:37.509Z,98024.84
2022-08-23T10:51:47.427Z,98019.78
2022-08-23T10:56:06.218Z,98017.38
2022-08-23T11:00:21.369Z,98008.09
2022-08-23T11:04:44.809Z,98009.59
2022-08-23T11:09:03.491Z,98006.16
2022-08-23T11:13:21.796Z,97996.50
2022-08-23T11:17:29.715Z,97998.81
2022-08-23T11:21:38.580Z,98001.41
2022-08-23T11:25:44.847Z,97999.88
2022-08-23T11:29:47.182Z,98001.22
2022-08-23T11:34:23.128Z,98001.22
2022-08-23T11:38:48.227Z,98005.53
2022-08-23T11:42:53.173Z,97993.66
2022-08-23T11:46:59.397Z,97998.28
2022-08-23T11:51:18.367Z,97997.25
2022-08-23T11:55:35.146Z,97996.50
2022-08-23T12:00:06.366Z,97976.13
2022-08-23T12:04:55.465Z,97979.59
2022-08-23T12:09:25.484Z,97987.63
2022-08-23T12:13:52.554Z,97983.63
2022-08-23T12:18:06.156Z,97979.66
2022-08-23T12:22:15.553Z,97974.44
2022-08-23T12:26:28.853Z,97975.78
2022-08-23T12:30:44.269Z,97977.94
2022-08-23T12:34:58.317Z,97971.88
2022-08-23T12:39:18.829Z,97967.53
2022-08-23T12:43:24.331Z,97971.56
2022-08-23T12:47:26.733Z,97966.81
2022-08-23T12:51:29.355Z,97969.84
2022-08-23T12:55:35.242Z,97969.91
2022-08-23T12:59:50.677Z,97965.69
2022-08-23T13:04:08.304Z,97969.91
2022-08-23T13:08:19.341Z,97970.53
2022-08-23T13:12:29.477Z,97970.53
2022-08-23T13:16:40.985Z,97963.16
2022-08-23T13:20:43.123Z,97949.00
2022-08-23T13:25:29.209Z,97951.00
2022-08-23T13:29:33.599Z,97952.03
2022-08-23T13:33:36.365Z,97948.63
2022-08-23T13:37:46.448Z,97948.78
2022-08-23T13:41:48.544Z,97949.09
2022-08-23T13:45:54.732Z,97951.06
2022-08-23T13:49:58.836Z,97943.31
2022-08-23T13:54:03.660Z,97946.75
2022-08-23T13:58:10.388Z,97944.31
2022-08-23T14:02:15.407Z,97942.69
2022-08-23T14:06:17.562Z,97938.63
2022-08-23T14:10:22.337Z,97938.19
2022-08-23T14:14:25.342Z,97938.31
2022-08-23T14:18:27.526Z,97935.66
2022-08-23T14:22:29.568Z,97930.47
2022-08-23T14:26:31.788Z,97931.22
2022-08-23T14:30:38.297Z,97937.78
2022-08-23T14:34:40.640Z,97937.72
2022-08-23T14:38:42.681Z,97929.72
2022-08-23T14:42:45.811Z,97939.22
2022-08-23T14:46:47.955Z,97934.81
2022-08-23T14:50:50.345Z,97928.66
2022-08-23T14:54:52.559Z,97927.94
2022-08-23T14:58:54.734Z,97927.69
2022-08-23T15:02:57.062Z,97936.75
2022-08-23T15:07:18.333Z,97931.47
2022-08-23T15:15:43.221Z,97927.22
2022-08-23T15:19:45.363Z,97932.44
2022-08-23T15:23:47.980Z,97929.38
2022-08-23T15:27:51.120Z,97924.19
2022-08-23T15:31:54.421Z,97924.38
2022-08-23T15:35:58.509Z,97922.47
2022-08-23T15:40:01.092Z,97919.22
2022-08-23T15:44:03.717Z,97912.97
2022-08-23T15:48:29.631Z,97915.91
2022-08-23T15:52:31.664Z,97920.25
2022-08-23T15:56:37.467Z,97908.53
2022-08-23T16:00:39.526Z,97906.22
2022-08-23T16:04:42.111Z,97910.38
2022-08-23T16:08:49.509Z,97918.31
2022-08-23T16:12:51.532Z,97918.25
2022-08-23T16:16:56.436Z,97918.16
2022-08-23T16:20:58.499Z,97917.13
2022-08-23T16:25:00.569Z,97912.56
2022-08-23T16:29:09.007Z,97917.41
2022-08-23T16:33:11.049Z,97912.47
2022-08-23T16:37:13.068Z,97909.50
2022-08-23T16:41:15.519Z,97906.50
2022-08-23T16:45:17.809Z,97921.41
2022-08-23T16:49:27.917Z,97914.69
2022-08-23T16:53:30.013Z,97928.56
2022-08-23T16:57:32.098Z,97924.50
2022-08-23T17:01:52.986Z,97926.91
2022-08-23T17:05:55.539Z,97928.03
2022-08-23T17:09:57.601Z,97926.25
2022-08-23T17:13:59.657Z,97930.22
2022-08-23T17:18:07.636Z,97925.91
2022-08-23T17:22:10.206Z,97936.78
2022-08-23T17:26:13.011Z,97940.72
2022-08-23T17:30:18.504Z,97942.97
2022-08-23T17:34:20.524Z,97940.50
2022-08-23T17:38:22.636Z,97948.19
2022-08-23T17:42:24.652Z,97945.88
2022-08-23T17:46:27.197Z,97951.63
2022-08-23T17:50:29.246Z,97954.06
2022-08-23T17:54:31.346Z,97961.19
2022-08-23T17:58:33.435Z,97963.25
2022-08-23T18:02:35.541Z,97961.09
2022-08-23T18:06:37.668Z,97971.22
2022-08-23T18:10:40.012Z,97969.69
2022-08-23T18:14:42.107Z,97964.97
2022-08-23T18:18:44.253Z,97978.91
2022-08-23T18:22:46.298Z,97983.38
2022-08-23T18:27:07.568Z,97986.59
2022-08-23T18:31:15.088Z,97996.22
2022-08-23T18:35:17.605Z,97998.56
2022-08-23T18:39:31.378Z,98005.97
2022-08-23T18:43:37.669Z,98008.13
2022-08-23T18:47:40.400Z,98017.19
2022-08-23T18:51:42.602Z,98008.69
2022-08-23T18:55:45.687Z,98013.59
2022-08-23T18:59:47.708Z,98022.25
2022-08-23T19:03:49.757Z,98026.47
2022-08-23T19:07:51.892Z,98031.19
2022-08-23T19:11:53.986Z,98032.19
2022-08-23T19:15:56.083Z,98043.22
2022-08-23T19:19:58.274Z,98040.41
2022-08-23T19:24:00.367Z,98047.44
2022-08-23T19:28:02.788Z,98051.78
2022-08-23T19:32:05.339Z,98053.34
2022-08-23T19:36:12.859Z,98050.19
2022-08-23T19:40:26.192Z,98056.38
2022-08-23T19:44:29.019Z,98055.38
2022-08-23T19:48:31.076Z,98057.75
2022-08-23T19:52:33.623Z,98069.50
2022-08-23T19:56:42.327Z,98059.50
2022-08-23T20:00:45.375Z,98061.13
2022-08-23T20:04:47.534Z,98072.97
2022-08-23T20:08:49.937Z,98075.00
2022-08-23T20:12:52.035Z,98074.56
2022-08-23T20:16:54.668Z,98080.75
2022-08-23T20:20:57.689Z,98084.13
2022-08-23T20:25:00.020Z,98093.19
2022-08-23T20:29:04.160Z,98093.84
2022-08-23T20:33:06.269Z,98091.44
2022-08-23T20:37:08.309Z,98098.38
2022-08-23T20:41:10.516Z,98092.50
2022-08-23T20:45:19.339Z,98083.13
2022-08-23T20:49:22.127Z,98091.28
2022-08-23T20:53:24.170Z,98095.88
2022-08-23T20:57:26.188Z,98097.34
2022-08-23T21:01:34.280Z,98106.19
2022-08-23T21:05:36.353Z,98094.91
2022-08-23T21:09:39.268Z,98107.38
2022-08-23T21:13:43.912Z,98110.03
2022-08-23T21:17:47.014Z,98107.75
2022-08-23T21:21:50.413Z,98108.47
2022-08-23T21:25:57.589Z,98112.34
2022-08-23T21:29:59.507Z,98114.50
2022-08-23T21:34:01.939Z,98118.03
2022-08-23T21:38:04.024Z,98120.72
2022-08-23T21:42:14.916Z,98124.31
2022-08-23T21:46:17.650Z,98120.00
2022-08-23T21:50:19.867Z,98132.69
2022-08-23T21:54:26.958Z,98134.19
2022-08-23T21:58:29.533Z,98124.88
2022-08-23T22:02:31.616Z,98125.25
2022-08-23T22:06:35.000Z,98126.50
2022-08-23T22:10:38.801Z,98137.53
2022-08-23T22:14:46.871Z,98131.53
2022-08-23T22:18:49.079Z,98132.97
2022-08-23T22:22:51.148Z,98135.00
2022-08-23T22:26:54.537Z,98146.44
2022-08-23T22:30:58.249Z,98146.53
2022-08-23T22:35:00.312Z,98134.59
2022-08-23T22:39:03.663Z,98140.66
2022-08-23T22:43:05.745Z,98132.69
2022-08-23T22:47:07.889Z,98132.44
2022-08-23T22:51:16.062Z,98134.25
2022-08-23T22:55:18.161Z,98128.09
2022-08-23T22:59:22.410Z,98132.00
2022-08-23T23:03:29.566Z,98129.59
2022-08-23T23:07:50.033Z,98129.75
2022-08-23T23:11:52.691Z,98137.56
2022-08-23T23:15:55.433Z,98139.25
2022-08-23T23:20:16.219Z,98146.00
2022-08-23T23:24:26.497Z,98152.66
2022-08-23T23:28:28.995Z,98152.22
2022-08-23T23:32:31.025Z,98149.78
2022-08-23T23:36:33.665Z,98156.16
2022-08-23T23:40:37.145Z,98154.69
2022-08-23T23:44:39.217Z,98156.84
2022-08-23T23:48:43.430Z,98156.13
2022-08-23T23:52:45.975Z,98158.88
2022-08-23T23:56:48.082Z,98162.06
